Time;durP1;ratioP1;P1;durP2;ratioP2;P2;SDS_P1;SDS_P2;PMS_P1;PMS_P2;Temp;Humidity;BMP_temperature;BMP_pressure;BME280_temperature;BME280_humidity;BME280_pressure;Samples;Min_cycle;Max_cycle;Signal;HPM_P1;HPM_P2
2022/12/26 00:01:04;;;;;;;171.45;56.10;;;8.70;99.90;;;;;;4869050;29;20033;-93
2022/12/26 00:03:33;;;;;;;157.27;53.42;;;8.70;99.90;;;;;;4868919;29;20044;-92
2022/12/26 00:05:59;;;;;;;98.15;39.55;;;8.60;99.90;;;;;;4869110;29;20550;-92
2022/12/26 00:08:26;;;;;;;121.40;41.42;;;8.50;99.90;;;;;;4884429;29;20517;-92
2022/12/26 00:10:57;;;;;;;134.32;41.50;;;8.50;99.90;;;;;;4869290;29;20029;-91
2022/12/26 00:13:24;;;;;;;94.22;34.60;;;8.30;99.90;;;;;;4884124;29;20123;-93
2022/12/26 00:15:51;;;;;;;86.55;33.15;;;8.30;99.90;;;;;;4868757;29;20040;-91
2022/12/26 00:18:18;;;;;;;193.18;53.10;;;8.30;99.90;;;;;;4884304;29;20037;-92
2022/12/26 00:20:45;;;;;;;201.00;49.40;;;8.20;99.90;;;;;;4869290;29;20033;-92
2022/12/26 00:23:12;;;;;;;204.38;58.28;;;8.30;99.90;;;;;;4871129;29;20048;-91
2022/12/26 00:25:39;;;;;;;213.23;51.70;;;8.30;99.90;;;;;;4877157;29;20021;-90
2022/12/26 00:28:05;;;;;;;88.63;37.28;;;8.30;99.90;;;;;;4869093;29;20049;-94
2022/12/26 00:30:33;;;;;;;164.75;46.60;;;8.30;99.90;;;;;;4869048;29;20566;-93
2022/12/26 00:32:59;;;;;;;131.82;38.80;;;8.30;99.90;;;;;;4869415;29;20036;-93
2022/12/26 00:35:26;;;;;;;160.13;43.22;;;8.30;99.90;;;;;;4885041;29;20041;-92
2022/12/26 00:37:53;;;;;;;155.38;38.90;;;8.30;99.90;;;;;;4868826;29;20024;-93
2022/12/26 00:40:20;;;;;;;1482.85;463.83;;;8.30;99.90;;;;;;4870862;29;20033;-94
2022/12/26 00:42:50;;;;;;;181.88;53.83;;;8.30;99.90;;;;;;4869292;29;20041;-91
2022/12/26 00:45:17;;;;;;;229.20;53.17;;;8.40;99.90;;;;;;4868142;29;20029;-92
2022/12/26 00:47:44;;;;;;;104.97;33.25;;;8.30;99.90;;;;;;4868210;29;20029;-92
2022/12/26 00:50:11;;;;;;;133.02;38.35;;;8.30;99.90;;;;;;4884031;29;20478;-91
2022/12/26 00:52:37;;;;;;;147.38;38.92;;;8.30;99.90;;;;;;4868042;29;20578;-92
2022/12/26 00:55:05;;;;;;;256.50;58.58;;;8.30;99.90;;;;;;4867790;29;20088;-90
2022/12/26 00:57:31;;;;;;;94.35;36.95;;;8.30;99.90;;;;;;4867864;29;20077;-90
2022/12/26 00:59:59;;;;;;;124.65;39.58;;;8.20;99.90;;;;;;4883204;29;20110;-90
2022/12/26 01:02:37;;;;;;;65.82;29.30;;;8.20;99.90;;;;;;4867730;29;20096;-90
2022/12/26 01:05:10;;;;;;;62.83;27.95;;;8.10;99.90;;;;;;4867934;29;20439;-90
2022/12/26 01:07:38;;;;;;;56.05;27.33;;;8.10;99.90;;;;;;4868014;29;20036;-90
2022/12/26 01:10:07;;;;;;;96.30;30.52;;;7.90;99.90;;;;;;4883313;29;20052;-91
2022/12/26 01:12:34;;;;;;;72.95;27.45;;;7.90;99.90;;;;;;4882939;29;20091;-91
2022/12/26 01:15:01;;;;;;;102.50;35.03;;;7.90;99.90;;;;;;4867717;29;20032;-91
2022/12/26 01:17:28;;;;;;;74.53;28.70;;;7.80;99.90;;;;;;4867510;29;20570;-91
2022/12/26 01:19:55;;;;;;;69.10;30.83;;;7.80;99.90;;;;;;4867469;29;20036;-92
2022/12/26 01:22:23;;;;;;;94.00;32.17;;;7.90;99.90;;;;;;4882870;29;20071;-90
2022/12/26 01:24:54;;;;;;;130.15;34.50;;;7.90;99.90;;;;;;4867497;29;20036;-91
2022/12/26 01:27:22;;;;;;;147.27;35.58;;;8.00;99.90;;;;;;4883053;29;20104;-90
2022/12/26 01:29:49;;;;;;;171.73;32.28;;;8.00;99.90;;;;;;4867547;29;20032;-90
2022/12/26 01:32:15;;;;;;;181.40;32.83;;;8.10;99.90;;;;;;4882612;29;20037;-92
2022/12/26 01:34:42;;;;;;;90.28;27.25;;;8.10;99.90;;;;;;4867237;29;20055;-91
2022/12/26 01:37:12;;;;;;;97.90;27.35;;;8.10;99.90;;;;;;4867368;29;20100;-91
2022/12/26 01:39:40;;;;;;;110.53;31.75;;;8.20;99.90;;;;;;4867540;29;20036;-92
2022/12/26 01:42:14;;;;;;;87.88;25.85;;;8.20;99.90;;;;;;4867201;29;20040;-90
2022/12/26 01:45:04;;;;;;;40.80;23.20;;;8.20;99.90;;;;;;4867218;29;20029;-91
2022/12/26 01:47:42;;;;;;;88.53;32.38;;;8.10;99.90;;;;;;4867471;29;20036;-90
2022/12/26 01:50:39;;;;;;;93.40;27.90;;;8.10;99.90;;;;;;4867075;29;20040;-92
2022/12/26 01:53:20;;;;;;;87.30;25.73;;;8.00;99.90;;;;;;4861149;29;20486;-91
2022/12/26 01:56:13;;;;;;;102.47;29.00;;;8.00;99.90;;;;;;4867443;29;20040;-92
2022/12/26 01:59:00;;;;;;;86.20;27.52;;;8.00;99.90;;;;;;4862259;29;20123;-91
2022/12/26 02:01:31;;;;;;;54.17;21.75;;;8.00;99.90;;;;;;4867368;29;20032;-91
2022/12/26 02:06:46;;;;;;;36.05;19.92;;;7.90;99.90;;;;;;4898154;29;20167;-90
2022/12/26 02:09:13;;;;;;;29.08;17.60;;;7.80;99.90;;;;;;4866991;29;20029;-90
2022/12/26 02:11:48;;;;;;;43.35;18.65;;;7.80;99.90;;;;;;4882436;29;20064;-90
2022/12/26 02:14:15;;;;;;;59.53;19.00;;;7.70;99.90;;;;;;4866628;29;20052;-90
2022/12/26 02:16:42;;;;;;;44.55;19.70;;;7.70;99.90;;;;;;4866562;29;20033;-91
2022/12/26 02:19:41;;;;;;;110.15;28.00;;;7.60;99.90;;;;;;4866981;29;20029;-91
2022/12/26 02:22:11;;;;;;;68.97;21.77;;;7.60;99.90;;;;;;4859723;29;20056;-91
2022/12/26 02:25:09;;;;;;;158.10;33.97;;;7.60;99.90;;;;;;4866969;29;20037;-91
2022/12/26 02:28:18;;;;;;;235.75;41.00;;;7.50;99.90;;;;;;4866996;29;20031;-90
2022/12/26 02:31:08;;;;;;;100.22;30.35;;;7.40;99.90;;;;;;4841086;29;20036;-92
2022/12/26 02:34:11;;;;;;;192.15;35.88;;;7.40;99.90;;;;;;4866741;29;20102;-90
2022/12/26 02:37:08;;;;;;;63.92;27.08;;;7.50;99.90;;;;;;4866779;29;20037;-91
2022/12/26 02:39:56;;;;;;;63.05;27.48;;;7.40;99.90;;;;;;4858714;29;20037;-91
2022/12/26 02:42:31;;;;;;;195.93;35.33;;;7.50;99.90;;;;;;4866692;29;20049;-91
2022/12/26 03:15:06;;;;;;;25.40;16.95;;;7.60;99.90;;;;;;4885173;29;20088;-92
2022/12/26 03:17:37;;;;;;;23.33;15.57;;;7.50;99.90;;;;;;4869637;29;20502;-91
2022/12/26 03:20:11;;;;;;;23.95;17.02;;;7.40;99.90;;;;;;4869723;29;20036;-93
2022/12/26 03:22:55;;;;;;;30.67;18.30;;;7.40;99.90;;;;;;4869704;29;20554;-91
2022/12/26 03:28:23;;;;;;;51.60;16.85;;;7.30;99.90;;;;;;4885000;29;20482;-90
2022/12/26 03:30:51;;;;;;;43.08;17.60;;;7.40;99.90;;;;;;4884940;29;20036;-92
2022/12/26 03:36:19;;;;;;;36.72;15.50;;;7.30;99.90;;;;;;4884756;29;20044;-91
2022/12/26 04:19:26;;;;;;;27.38;17.27;;;6.80;99.90;;;;;;4825184;29;20446;-89
2022/12/26 04:45:14;;;;;;;36.75;19.02;;;6.40;99.90;;;;;;4899218;29;20120;-93
2022/12/26 04:50:10;;;;;;;40.25;22.02;;;6.40;99.90;;;;;;4868207;29;20054;-90
2022/12/26 04:50:31;;;;;;;30.08;18.15;;;6.30;99.90;;;;;;4899030;29;20037;-91
2022/12/26 04:52:58;;;;;;;29.42;19.52;;;6.40;99.90;;;;;;4883468;29;20040;-91
2022/12/26 04:55:30;;;;;;;47.33;19.73;;;6.40;99.90;;;;;;4867730;29;20032;-91
2022/12/26 04:57:58;;;;;;;64.43;21.77;;;6.30;99.90;;;;;;4867960;29;20064;-91
2022/12/26 05:00:26;;;;;;;37.60;19.38;;;6.30;99.90;;;;;;4883362;29;20029;-94
2022/12/26 05:11:24;;;;;;;30.60;17.55;;;6.20;99.90;;;;;;4873447;29;20096;-90
2022/12/26 05:13:52;;;;;;;84.20;22.50;;;6.10;99.90;;;;;;4867773;29;20119;-91
2022/12/26 05:30:31;;;;;;;68.43;24.23;;;5.90;99.90;;;;;;4898487;29;20028;-91
2022/12/26 05:35:43;;;;;;;38.10;19.75;;;5.90;99.90;;;;;;4898863;29;20395;-91
2022/12/26 05:38:10;;;;;;;27.40;18.10;;;5.90;99.90;;;;;;4867538;29;20028;-91
2022/12/26 05:40:38;;;;;;;32.17;21.48;;;5.90;99.90;;;;;;4867857;29;20067;-90
2022/12/26 05:43:05;;;;;;;31.17;20.13;;;5.80;99.90;;;;;;4867218;29;20062;-90
2022/12/26 05:45:32;;;;;;;32.78;19.10;;;5.80;99.90;;;;;;4867262;29;20049;-91
2022/12/26 05:48:02;;;;;;;33.47;21.35;;;5.80;99.90;;;;;;4867288;29;20041;-91
2022/12/26 05:50:32;;;;;;;30.40;19.92;;;5.90;99.90;;;;;;4867249;29;20049;-90
2022/12/26 05:52:59;;;;;;;29.85;19.45;;;5.90;99.90;;;;;;4867084;29;20036;-90
2022/12/26 05:55:26;;;;;;;30.48;19.95;;;6.00;99.90;;;;;;4867228;29;20056;-91
2022/12/26 05:57:52;;;;;;;29.23;18.30;;;6.00;99.90;;;;;;4867190;29;20040;-90
2022/12/26 06:00:19;;;;;;;31.45;19.02;;;6.10;99.90;;;;;;4868155;29;20025;-91
2022/12/26 06:02:46;;;;;;;26.90;18.23;;;6.10;99.90;;;;;;4867468;29;20032;-93
2022/12/26 06:05:16;;;;;;;26.27;17.13;;;6.10;99.90;;;;;;4882606;29;20052;-92
2022/12/26 06:07:53;;;;;;;25.67;17.40;;;6.00;99.90;;;;;;4882672;29;20495;-92
2022/12/26 06:10:19;;;;;;;26.80;18.88;;;5.90;99.90;;;;;;4867164;29;20079;-92
2022/12/26 06:12:46;;;;;;;24.23;17.67;;;5.90;99.90;;;;;;4866818;29;20057;-90
2022/12/26 06:15:13;;;;;;;25.60;17.73;;;5.90;99.90;;;;;;4867269;29;20419;-91
2022/12/26 06:17:39;;;;;;;19.77;15.52;;;5.90;99.90;;;;;;4866966;29;20036;-89
2022/12/26 06:20:10;;;;;;;22.63;16.17;;;6.00;99.90;;;;;;4867035;29;20038;-90
2022/12/26 06:22:36;;;;;;;26.23;17.88;;;5.90;99.90;;;;;;4866928;29;20040;-91
2022/12/26 06:25:09;;;;;;;21.98;16.98;;;5.90;99.90;;;;;;4866958;29;20048;-91
2022/12/26 06:27:36;;;;;;;19.40;14.93;;;5.90;99.90;;;;;;4882429;29;20040;-92
2022/12/26 06:30:03;;;;;;;22.50;15.95;;;5.90;99.90;;;;;;4866989;29;20032;-90
2022/12/26 06:32:30;;;;;;;18.15;13.55;;;5.90;99.90;;;;;;4866655;29;20530;-91
2022/12/26 06:34:56;;;;;;;20.85;14.57;;;5.90;99.90;;;;;;4866734;29;20036;-91
2022/12/26 06:37:23;;;;;;;18.98;14.88;;;5.90;99.90;;;;;;4882031;29;20032;-90
2022/12/26 06:39:53;;;;;;;25.80;17.10;;;6.00;99.90;;;;;;4869316;29;20112;-91
2022/12/26 06:42:23;;;;;;;22.10;16.13;;;6.00;99.90;;;;;;4870247;29;20045;-89
2022/12/26 06:44:50;;;;;;;22.85;15.68;;;6.10;99.90;;;;;;4885583;29;20033;-90
2022/12/26 06:47:17;;;;;;;20.98;15.27;;;6.30;99.90;;;;;;4870471;29;20485;-92
2022/12/26 06:49:44;;;;;;;19.42;13.43;;;6.60;99.90;;;;;;4870549;29;20036;-90
2022/12/26 06:52:13;;;;;;;15.50;11.88;;;6.80;99.90;;;;;;4870322;29;20088;-92
2022/12/26 06:54:43;;;;;;;14.27;10.88;;;7.10;99.90;;;;;;4870329;29;20037;-91
2022/12/26 06:57:10;;;;;;;15.55;10.68;;;7.30;99.90;;;;;;4870720;29;20029;-91
2022/12/26 06:59:37;;;;;;;14.00;10.77;;;7.40;99.90;;;;;;4870093;29;20056;-91
2022/12/26 07:02:03;;;;;;;16.67;12.30;;;7.40;99.90;;;;;;4870388;29;20032;-92
2022/12/26 07:04:30;;;;;;;12.65;10.02;;;7.60;99.90;;;;;;4885484;29;20119;-92
2022/12/26 07:06:57;;;;;;;12.50;10.38;;;7.80;99.90;;;;;;4870036;29;20025;-90
2022/12/26 07:09:24;;;;;;;17.90;12.43;;;8.00;99.90;;;;;;4870050;29;20037;-93
2022/12/26 07:11:50;;;;;;;14.00;12.25;;;8.00;99.90;;;;;;4869750;29;20084;-93
2022/12/26 07:14:17;;;;;;;17.00;12.95;;;8.20;99.90;;;;;;4869606;29;20049;-92
2022/12/26 07:16:45;;;;;;;14.70;13.07;;;8.30;99.90;;;;;;4870252;29;20406;-92
2022/12/26 07:19:15;;;;;;;13.52;12.13;;;8.40;99.90;;;;;;4869587;29;20056;-93
2022/12/26 07:21:42;;;;;;;13.23;11.93;;;8.40;99.90;;;;;;4869674;29;20024;-91
2022/12/26 07:24:18;;;;;;;13.65;12.20;;;8.50;99.90;;;;;;4869564;29;20029;-91
2022/12/26 07:26:51;;;;;;;16.67;12.70;;;8.60;99.90;;;;;;4884951;29;20479;-92
2022/12/26 07:29:18;;;;;;;12.77;11.57;;;8.80;99.90;;;;;;4884870;29;20029;-92
2022/12/26 07:31:44;;;;;;;13.85;11.80;;;8.90;99.90;;;;;;4869214;29;20063;-92
2022/12/26 07:34:11;;;;;;;14.50;13.20;;;9.00;99.90;;;;;;4884866;29;20037;-93
2022/12/26 07:36:38;;;;;;;13.73;12.48;;;9.10;99.90;;;;;;4869519;29;20057;-92
2022/12/26 07:39:05;;;;;;;13.68;12.57;;;9.30;99.90;;;;;;4869507;29;20045;-92
2022/12/26 07:44:20;;;;;;;13.55;12.45;;;9.50;99.90;;;;;;4885252;29;20091;-92
2022/12/26 07:46:55;;;;;;;16.77;15.32;;;9.70;99.90;;;;;;4902486;29;20116;-93
2022/12/26 07:49:28;;;;;;;16.83;15.23;;;9.80;99.90;;;;;;4869410;29;20050;-93
2022/12/26 07:51:54;;;;;;;16.35;14.95;;;10.00;99.90;;;;;;4870194;29;20033;-92
2022/12/26 07:54:21;;;;;;;17.70;16.00;;;10.20;99.90;;;;;;4869292;29;20029;-91
2022/12/26 07:56:48;;;;;;;17.55;16.05;;;10.40;99.90;;;;;;4869088;29;20498;-93
2022/12/26 08:03:02;;;;;;;20.92;18.73;;;10.80;99.90;;;;;;4901290;29;20165;-91
2022/12/26 08:05:28;;;;;;;20.02;18.13;;;11.10;99.90;;;;;;4869220;29;20036;-92
2022/12/26 08:07:55;;;;;;;23.38;21.05;;;11.30;99.90;;;;;;4884898;29;20048;-92
2022/12/26 08:10:22;;;;;;;21.23;19.23;;;11.50;99.90;;;;;;4868952;29;20035;-92
2022/12/26 08:12:48;;;;;;;20.50;18.52;;;11.70;99.90;;;;;;4884404;29;20505;-92
2022/12/26 08:15:15;;;;;;;22.08;19.90;;;11.80;99.90;;;;;;4869031;29;20400;-91
2022/12/26 08:17:42;;;;;;;22.08;20.00;;;11.90;99.90;;;;;;4884416;29;20398;-92
2022/12/26 08:20:09;;;;;;;18.70;17.05;;;12.10;99.90;;;;;;4868976;29;20498;-93
2022/12/26 08:22:36;;;;;;;19.65;17.77;;;12.30;99.90;;;;;;4868911;29;20097;-92
2022/12/26 08:25:02;;;;;;;21.50;19.40;;;12.40;99.90;;;;;;4868434;29;20052;-92
2022/12/26 08:27:29;;;;;;;21.50;19.02;;;12.70;99.90;;;;;;4884090;29;20486;-93
2022/12/26 08:29:58;;;;;;;25.33;21.35;;;12.80;99.90;;;;;;4881122;29;20104;-91
2022/12/26 08:32:25;;;;;;;24.65;22.00;;;12.90;99.90;;;;;;4891792;29;20036;-93
2022/12/26 08:34:53;;;;;;;25.38;22.33;;;13.10;99.90;;;;;;4887331;29;20119;-92
2022/12/26 08:37:19;;;;;;;29.92;24.33;;;13.20;99.90;;;;;;4898256;29;20115;-92
2022/12/26 08:39:47;;;;;;;21.20;19.08;;;13.30;99.90;;;;;;4868272;29;20021;-91
2022/12/26 08:42:14;;;;;;;22.13;19.30;;;13.40;99.90;;;;;;4900298;29;20054;-93
2022/12/26 08:44:40;;;;;;;18.55;16.85;;;13.60;99.90;;;;;;4886526;29;20087;-92
2022/12/26 08:47:07;;;;;;;17.20;15.80;;;13.60;99.90;;;;;;4886633;29;20050;-92
2022/12/26 08:49:36;;;;;;;16.25;14.75;;;13.70;99.90;;;;;;4886759;29;20028;-93
2022/12/26 08:52:03;;;;;;;15.45;14.25;;;13.80;99.90;;;;;;4883875;29;20111;-90
2022/12/26 08:54:36;;;;;;;15.80;14.38;;;13.90;99.90;;;;;;4902621;29;20028;-94
2022/12/26 08:57:02;;;;;;;13.95;12.93;;;14.00;99.90;;;;;;4902256;29;20032;-91
2022/12/26 08:59:28;;;;;;;13.75;12.45;;;14.20;99.90;;;;;;4878704;29;20031;-92
2022/12/26 09:01:55;;;;;;;12.80;11.73;;;14.30;99.90;;;;;;4886037;29;20040;-92
2022/12/26 09:04:21;;;;;;;13.18;12.15;;;14.40;99.90;;;;;;4886518;29;20028;-92
2022/12/26 09:06:48;;;;;;;13.63;12.63;;;14.40;99.90;;;;;;4902318;29;20040;-92
2022/12/26 09:09:14;;;;;;;13.20;12.30;;;14.60;99.90;;;;;;4872490;29;20025;-92
2022/12/26 09:11:41;;;;;;;12.55;11.65;;;14.80;99.90;;;;;;4864763;29;20499;-93
2022/12/26 09:14:08;;;;;;;12.85;12.02;;;15.00;99.90;;;;;;4889380;29;20055;-92
2022/12/26 09:16:42;;;;;;;12.68;11.68;;;15.20;99.90;;;;;;4898134;29;20394;-92
2022/12/26 09:19:12;;;;;;;13.57;12.23;;;15.20;99.90;;;;;;4882991;29;20040;-93
2022/12/26 09:21:39;;;;;;;12.90;11.98;;;15.40;99.90;;;;;;4871445;29;20415;-93
2022/12/26 09:24:13;;;;;;;14.50;13.50;;;15.50;99.90;;;;;;4895749;29;20123;-92
2022/12/26 09:26:40;;;;;;;12.98;12.15;;;15.60;99.90;;;;;;4896253;29;20398;-92
2022/12/26 09:29:06;;;;;;;13.10;12.20;;;15.70;99.90;;;;;;4867686;29;20045;-93
2022/12/26 09:31:34;;;;;;;13.05;12.18;;;15.80;99.90;;;;;;4876111;29;20012;-91
2022/12/26 09:34:03;;;;;;;13.20;12.35;;;15.90;99.90;;;;;;4896929;29;20036;-93
2022/12/26 09:36:34;;;;;;;13.52;12.55;;;15.90;99.90;;;;;;4881578;29;20032;-94
2022/12/26 09:39:01;;;;;;;13.13;12.32;;;16.00;99.90;;;;;;4864460;29;20033;-93
2022/12/26 09:42:05;;;;;;;13.07;12.18;;;16.10;99.90;;;;;;4869786;29;20047;-94
2022/12/26 09:44:57;;;;;;;14.68;13.48;;;16.10;99.90;;;;;;4864331;29;20037;-92
2022/12/26 09:47:42;;;;;;;17.25;15.80;;;16.20;99.90;;;;;;4877174;29;20048;-91
2022/12/26 09:50:08;;;;;;;20.42;18.83;;;16.10;99.90;;;;;;4886659;29;20458;-92
2022/12/26 09:52:41;;;;;;;18.98;17.58;;;16.10;99.90;;;;;;4871218;29;20037;-93
2022/12/26 09:56:00;;;;;;;20.15;18.48;;;16.10;99.90;;;;;;4880706;29;20036;-92
2022/12/26 09:58:49;;;;;;;22.30;20.38;;;16.20;99.90;;;;;;4879685;29;20410;-94
2022/12/26 10:01:19;;;;;;;20.15;18.60;;;16.30;99.90;;;;;;4898608;29;20512;-92
2022/12/26 10:03:55;;;;;;;22.02;20.23;;;16.30;99.90;;;;;;4885548;29;20041;-91
2022/12/26 10:06:33;;;;;;;22.10;20.30;;;16.30;99.90;;;;;;4875061;29;20102;-92
2022/12/26 10:09:11;;;;;;;20.95;19.45;;;16.40;99.90;;;;;;4868244;29;20076;-94
2022/12/26 10:12:21;;;;;;;21.55;19.95;;;16.40;99.90;;;;;;4866235;29;20029;-93
2022/12/26 10:15:25;;;;;;;19.77;18.27;;;16.30;99.90;;;;;;4869202;29;20052;-92
2022/12/26 10:18:16;;;;;;;17.75;16.33;;;16.40;99.90;;;;;;4870886;29;20037;-91
2022/12/26 10:21:23;;;;;;;16.30;14.93;;;16.40;99.90;;;;;;4869831;29;20060;-91
2022/12/26 10:24:14;;;;;;;15.25;14.10;;;16.40;99.90;;;;;;4869568;29;20052;-93
2022/12/26 10:26:49;;;;;;;14.98;13.88;;;16.50;99.90;;;;;;4868437;29;20033;-91
2022/12/26 10:29:38;;;;;;;14.57;13.57;;;16.50;99.90;;;;;;4867888;29;20040;-92
2022/12/26 10:32:18;;;;;;;15.68;14.48;;;16.50;99.90;;;;;;4852055;29;20511;-91
2022/12/26 10:34:47;;;;;;;15.23;14.00;;;16.70;99.90;;;;;;4867514;29;20029;-92
2022/12/26 10:37:25;;;;;;;14.70;13.60;;;16.70;99.90;;;;;;4867756;29;20036;-92
2022/12/26 10:40:16;;;;;;;15.38;14.25;;;16.80;99.90;;;;;;4870400;29;20039;-93
2022/12/26 10:42:54;;;;;;;15.48;14.27;;;16.90;99.90;;;;;;4869958;29;20473;-93
2022/12/26 10:45:35;;;;;;;15.27;14.15;;;16.90;99.90;;;;;;4867040;29;20069;-91
2022/12/26 10:48:02;;;;;;;15.80;14.60;;;16.90;99.90;;;;;;4867249;29;20071;-91
2022/12/26 10:50:31;;;;;;;15.90;14.60;;;17.10;99.90;;;;;;4867250;29;20576;-92
2022/12/26 10:53:01;;;;;;;16.17;14.85;;;17.00;99.90;;;;;;4867265;29;20043;-91
2022/12/26 10:55:34;;;;;;;15.82;14.55;;;17.00;99.90;;;;;;4867067;29;20077;-90
2022/12/26 10:58:16;;;;;;;15.68;14.52;;;17.10;99.90;;;;;;4866947;29;20033;-91
2022/12/26 11:00:43;;;;;;;15.50;14.30;;;17.20;99.90;;;;;;4867105;29;20124;-90
2022/12/26 11:03:16;;;;;;;15.57;14.35;;;17.20;99.90;;;;;;4866833;29;20120;-91
2022/12/26 11:05:54;;;;;;;16.15;14.95;;;17.10;99.90;;;;;;4866783;29;20127;-91
2022/12/26 11:08:46;;;;;;;15.60;14.40;;;17.20;99.90;;;;;;4867026;29;20055;-90
2022/12/26 11:11:49;;;;;;;17.02;15.70;;;17.50;99.90;;;;;;4867225;29;20025;-90
2022/12/26 11:14:35;;;;;;;15.60;14.32;;;17.40;99.90;;;;;;4866708;29;20049;-90
2022/12/26 11:17:10;;;;;;;16.48;15.35;;;17.40;99.90;;;;;;4866634;29;20060;-91
2022/12/26 11:19:40;;;;;;;16.13;14.73;;;17.50;99.90;;;;;;4867437;29;20040;-92
2022/12/26 11:22:28;;;;;;;15.95;14.57;;;17.40;99.90;;;;;;4878441;29;20036;-90
2022/12/26 11:25:16;;;;;;;17.00;15.35;;;17.40;99.90;;;;;;4883904;29;20044;-92
2022/12/26 11:27:48;;;;;;;16.40;14.98;;;17.40;99.90;;;;;;4851463;29;20039;-91
2022/12/26 11:30:28;;;;;;;16.10;14.80;;;17.30;99.90;;;;;;4866263;29;20116;-91
2022/12/26 11:33:27;;;;;;;15.98;14.55;;;17.40;99.90;;;;;;4866098;29;20033;-91
2022/12/26 11:36:06;;;;;;;15.80;14.50;;;17.30;99.90;;;;;;4866433;29;20029;-91
2022/12/26 11:38:43;;;;;;;15.38;14.07;;;17.50;99.90;;;;;;4866136;29;20030;-91
2022/12/26 11:41:30;;;;;;;16.00;14.70;;;17.50;99.90;;;;;;4866318;29;20029;-92
2022/12/26 11:44:20;;;;;;;15.02;13.80;;;17.50;99.90;;;;;;4866155;29;20045;-90
2022/12/26 11:47:13;;;;;;;15.95;14.68;;;17.30;99.90;;;;;;4807488;29;20051;-91
2022/12/26 11:49:39;;;;;;;14.75;13.65;;;17.40;99.90;;;;;;4792675;29;20035;-92
2022/12/26 11:52:40;;;;;;;16.77;15.20;;;17.40;99.90;;;;;;4792608;29;20137;-90
2022/12/26 11:55:36;;;;;;;19.77;17.73;;;17.40;99.90;;;;;;4770636;29;20141;-90
2022/12/26 11:58:09;;;;;;;17.25;15.48;;;17.50;99.90;;;;;;4792832;29;20054;-91
2022/12/26 12:00:37;;;;;;;16.67;15.32;;;17.60;99.90;;;;;;4792634;29;20039;-90
2022/12/26 12:03:15;;;;;;;18.10;16.20;;;17.60;99.90;;;;;;4792213;29;20050;-90
2022/12/26 12:05:58;;;;;;;16.75;15.20;;;17.60;99.90;;;;;;4792734;29;20031;-92
2022/12/26 12:08:24;;;;;;;20.60;17.73;;;17.60;99.90;;;;;;4793123;29;20095;-91
2022/12/26 12:10:54;;;;;;;19.38;17.38;;;17.70;99.90;;;;;;4792098;29;20043;-90
2022/12/26 12:14:13;;;;;;;15.98;14.40;;;17.70;99.90;;;;;;4791937;29;20054;-90
2022/12/26 12:17:16;;;;;;;15.52;14.30;;;17.60;99.90;;;;;;4746895;29;20035;-89
2022/12/26 12:19:46;;;;;;;17.70;15.90;;;17.60;99.90;;;;;;4792195;29;20046;-90
2022/12/26 12:22:39;;;;;;;18.25;16.45;;;17.50;99.90;;;;;;4795081;29;20091;-91
2022/12/26 12:25:24;;;;;;;17.73;15.93;;;17.40;99.90;;;;;;4862573;29;20029;-92
2022/12/26 12:28:06;;;;;;;17.30;15.70;;;17.30;99.90;;;;;;4847590;29;20030;-93
2022/12/26 12:31:00;;;;;;;17.73;16.00;;;17.20;99.90;;;;;;4847437;29;20055;-92
2022/12/26 12:45:35;;;;;;;;;;;;;;;;;;;;;
2022/12/26 12:48:35;;;;;;;20.58;18.40;;;17.40;99.90;;;;;;4903412;29;20044;-94
2022/12/26 12:51:39;;;;;;;27.40;22.25;;;17.40;99.90;;;;;;4897888;29;20076;-94
2022/12/26 12:54:51;;;;;;;27.08;22.17;;;17.40;99.90;;;;;;4887215;29;20032;-95
2022/12/26 12:57:32;;;;;;;24.25;20.23;;;17.40;99.90;;;;;;4883827;29;20060;-94
2022/12/26 13:00:14;;;;;;;23.30;19.50;;;17.40;99.90;;;;;;4884078;29;20060;-93
2022/12/26 13:02:59;;;;;;;20.50;18.45;;;17.40;99.90;;;;;;4884181;29;20045;-95
2022/12/26 13:05:57;;;;;;;21.70;19.50;;;17.50;99.90;;;;;;4883489;29;20024;-94
2022/12/26 13:08:49;;;;;;;21.40;19.25;;;17.50;99.90;;;;;;4849379;29;20490;-94
2022/12/26 13:32:00;;;;;;;21.77;18.60;;;17.30;99.90;;;;;;5886225;23;20116;-95
2022/12/26 13:58:46;;;;;;;22.90;20.42;;;16.90;99.90;;;;;;4901596;29;20055;-94
2022/12/26 14:27:16;;;;;;;26.92;23.48;;;15.40;99.90;;;;;;4882968;29;20045;-93
2022/12/26 14:30:11;;;;;;;31.08;22.05;;;15.20;99.90;;;;;;4882638;29;20044;-92
2022/12/26 14:33:17;;;;;;;27.67;21.48;;;15.10;99.90;;;;;;4873201;29;20033;-92
2022/12/26 14:36:21;;;;;;;26.23;22.42;;;15.00;99.90;;;;;;4876470;29;20037;-92
2022/12/26 14:39:55;;;;;;;33.97;23.75;;;15.00;99.90;;;;;;4865594;29;20034;-93
2022/12/26 14:43:16;;;;;;;34.00;24.33;;;14.90;99.90;;;;;;4896276;23;20760;-91
2022/12/26 14:45:51;;;;;;;27.75;22.55;;;14.80;99.90;;;;;;4900915;29;20036;-92
2022/12/26 14:48:17;;;;;;;29.48;22.80;;;14.70;99.90;;;;;;4901181;29;20052;-92
2022/12/26 14:50:54;;;;;;;28.70;23.27;;;14.60;99.90;;;;;;4916522;29;20063;-94
2022/12/26 14:53:57;;;;;;;30.65;23.20;;;14.60;99.90;;;;;;4900531;29;20036;-93
2022/12/26 14:56:35;;;;;;;29.02;22.70;;;14.50;99.90;;;;;;4898500;29;20036;-93
2022/12/26 14:59:33;;;;;;;29.00;23.50;;;14.40;99.90;;;;;;4882113;29;20025;-90
2022/12/26 15:02:28;;;;;;;34.42;24.33;;;14.40;99.90;;;;;;4903675;29;20032;-92
2022/12/26 15:05:19;;;;;;;34.42;25.73;;;14.30;99.90;;;;;;4893975;29;20024;-92
2022/12/26 15:08:08;;;;;;;31.40;23.52;;;14.30;99.90;;;;;;4904256;29;20052;-91
2022/12/26 15:10:47;;;;;;;30.80;23.67;;;14.20;99.90;;;;;;4870028;29;20029;-90
2022/12/26 15:13:40;;;;;;;40.70;28.35;;;14.10;99.90;;;;;;4870161;29;20040;-89
2022/12/26 15:16:25;;;;;;;38.45;27.80;;;14.10;99.90;;;;;;4847871;29;20038;-91
2022/12/26 15:19:13;;;;;;;39.17;30.08;;;14.00;99.90;;;;;;4833204;29;20045;-91
2022/12/26 15:21:46;;;;;;;45.30;31.13;;;13.90;99.90;;;;;;4832441;29;20041;-90
2022/12/26 15:24:47;;;;;;;47.90;32.13;;;13.90;99.90;;;;;;4833047;29;20045;-92
2022/12/26 15:27:52;;;;;;;41.88;29.83;;;13.80;99.90;;;;;;4832306;29;20101;-92
2022/12/26 15:30:31;;;;;;;53.28;35.92;;;13.70;99.90;;;;;;4830988;29;20132;-90
2022/12/26 15:33:20;;;;;;;65.50;44.03;;;13.70;99.90;;;;;;4832333;29;20038;-91
2022/12/26 15:36:12;;;;;;;74.55;47.90;;;13.70;99.90;;;;;;4832490;29;20030;-90
2022/12/26 15:39:04;;;;;;;75.18;49.47;;;13.60;99.90;;;;;;4832482;29;20037;-91
2022/12/26 15:41:54;;;;;;;75.18;46.38;;;13.60;99.90;;;;;;4831872;29;20555;-89
2022/12/26 15:45:10;;;;;;;63.03;40.85;;;13.50;99.90;;;;;;4831736;29;20049;-91
2022/12/26 15:47:46;;;;;;;52.45;35.60;;;13.40;99.90;;;;;;4806965;29;20384;-87
2022/12/26 15:50:36;;;;;;;54.40;35.38;;;13.20;99.90;;;;;;4832714;29;20050;-89
2022/12/26 15:53:24;;;;;;;49.83;33.67;;;13.10;99.90;;;;;;4849289;29;20054;-90
2022/12/26 15:56:14;;;;;;;55.15;34.90;;;13.00;99.90;;;;;;4893785;29;20033;-89
2022/12/26 15:59:31;;;;;;;47.67;34.97;;;12.80;99.90;;;;;;4871914;29;20035;-89
2022/12/26 16:01:58;;;;;;;51.58;34.80;;;12.70;99.90;;;;;;4889983;29;20112;-89
2022/12/26 16:04:57;;;;;;;55.10;36.30;;;12.60;99.90;;;;;;4900701;29;20398;-88
2022/12/26 16:07:24;;;;;;;50.33;34.75;;;12.50;99.90;;;;;;4884209;29;20055;-89
2022/12/26 16:09:53;;;;;;;53.45;34.42;;;12.40;99.90;;;;;;4872851;29;20043;-89
2022/12/26 16:12:24;;;;;;;46.75;30.58;;;12.30;99.90;;;;;;4901340;29;20048;-88
2022/12/26 16:15:13;;;;;;;42.38;29.33;;;12.20;99.90;;;;;;4885131;29;20029;-89
2022/12/26 16:17:41;;;;;;;44.55;29.17;;;12.20;99.90;;;;;;4884936;29;20123;-88
2022/12/26 16:22:42;;;;;;;43.22;29.23;;;12.10;99.90;;;;;;4900789;29;20024;-88
2022/12/26 16:23:10;;;;;;;50.47;32.42;;;12.10;99.90;;;;;;4887151;29;20100;-88
2022/12/26 16:25:53;;;;;;;49.22;31.98;;;12.00;99.90;;;;;;4870074;29;20060;-89
2022/12/26 16:28:32;;;;;;;47.00;31.63;;;11.80;99.90;;;;;;4901685;29;20495;-91
2022/12/26 16:30:59;;;;;;;46.30;30.20;;;11.80;99.90;;;;;;4904575;29;20494;-89
2022/12/26 16:33:41;;;;;;;47.50;31.67;;;11.80;99.90;;;;;;4907667;29;20025;-89
2022/12/26 16:36:15;;;;;;;50.15;32.72;;;11.70;99.90;;;;;;4889586;29;20037;-88
2022/12/26 16:38:43;;;;;;;55.22;33.05;;;11.70;99.90;;;;;;4889597;29;20033;-88
2022/12/26 16:41:21;;;;;;;63.70;37.75;;;11.70;99.90;;;;;;4889054;29;20088;-89
2022/12/26 16:43:49;;;;;;;74.75;46.05;;;11.60;99.90;;;;;;4870013;29;20104;-90
2022/12/26 16:46:21;;;;;;;76.95;44.90;;;11.50;99.90;;;;;;4883660;29;20040;-90
2022/12/26 16:49:00;;;;;;;73.32;43.55;;;11.40;99.90;;;;;;4890425;29;20041;-90
2022/12/26 16:51:43;;;;;;;69.00;40.58;;;11.30;99.90;;;;;;4887218;29;20033;-89
2022/12/26 16:54:16;;;;;;;73.20;43.17;;;11.30;99.90;;;;;;4884307;29;20091;-90